• Join FlightAware (Why Join?)
  • Login
  • US Flag 
05:34AM EDT


 

Airport Tracker/Info


-or-


 

Live Flight TrackerFlight Track Log ✈ DAL6232 ✈ 23-Jun-2013 ✈ KBUF - KJFK

Flight Track Log - Related Links

Times and Time Zones

All times are in EDT time to prevent confusion due to time zone crossing. See the DAL6232 flight status page for this flight to view local times or setup timezone preferences in your user account.

Time Position Orientation Groundspeed Altitude Reporting Facility
EDT Latitude Longitude Course Direction KTS MPH feet Rate Location/Type
06:16AM 42.9333 -78.7500 200° South 153 176 2,000  Level Buffalo TRACON
06:16AM 42.9000 -78.7667 200° South 154 177 3,100 2,160 Climbing Buffalo TRACON
06:17AM 42.8533 -78.7028 135° Southeast 284 327 6,200 2,400 Climbing Cleveland Center
06:18AM 42.8517 -78.6008 91° East 295 339 9,000 2,640 Climbing Cleveland Center
06:19AM 42.8514 -78.4678 90° East 300 345 11,500 2,400 Climbing Cleveland Center
06:20AM 42.8469 -78.3375 93° East 325 374 13,800 2,280 Climbing Cleveland Center
06:21AM 42.8461 -78.1931 90° East 356 410 16,100 2,100 Climbing Cleveland Center
06:22AM 42.8408 -78.0433 93° East 375 432 18,100 1,800 Climbing Cleveland Center
06:23AM 42.8375 -77.8906 92° East 395 455 19,700 1,440 Climbing Cleveland Center
06:24AM 42.8356 -77.7292 91° East 406 467 21,000 600 Climbing Cleveland Center
06:25AM 42.8314 -77.5622 92° East 424 488 21,000  Level Cleveland Center
06:28AM 42.8242 -77.1942 91° East 444 511 21,000  Level Boston Center
06:29AM 42.8211 -77.0153 91° East 438 504 21,000  Level Boston Center
06:30AM 42.7706 -76.8700 115° Southeast 415 478 21,000  Level Boston Center
06:31AM 42.7089 -76.7356 122° Southeast 415 478 21,000  Level Boston Center
06:32AM 42.6558 -76.5936 117° Southeast 420 483 21,000  Level Boston Center
06:33AM 42.6069 -76.4492 115° Southeast 420 483 21,000  Level Boston Center
06:34AM 42.5597 -76.3078 114° Southeast 420 483 21,000  Level Boston Center
06:35AM 42.5142 -76.1756 115° Southeast 420 483 21,000  Level Boston Center
06:36AM 42.4644 -76.0344 115° Southeast 415 478 21,000  Level Boston Center
06:37AM 42.4111 -75.8739 114° Southeast 415 478 21,000  Level Boston Center
06:38AM 42.3608 -75.7361 116° Southeast 415 478 21,000  Level Boston Center
06:39AM 42.3086 -75.5903 116° Southeast 415 478 21,000  Level Boston Center
06:40AM 42.2664 -75.4589 113° Southeast 421 484 21,000  Level Boston Center
06:41AM 42.2139 -75.3164 116° Southeast 426 490 21,000  Level Boston Center
06:42AM 42.1633 -75.1711 115° Southeast 421 484 21,000  Level Boston Center
06:43AM 42.1042 -75.0203 118° Southeast 421 484 21,000  Level Boston Center
06:44AM 42.0533 -74.8756 115° Southeast 416 479 21,000  Level Boston Center
06:45AM 42.0061 -74.7422 115° Southeast 416 479 21,000  Level Boston Center
06:46AM 41.9567 -74.6036 116° Southeast 416 479 21,000 -120 Level Boston Center
06:47AM 41.8989 -74.4539 117° Southeast 416 479 20,800 -540 Descending Boston Center
06:48AM 41.8592 -74.3494 117° Southeast 404 465 20,000 -420 Descending Boston Center
06:49AM 41.8011 -74.1917 116° Southeast 396 456 20,000  Level Boston Center
06:50AM 41.7553 -74.0597 115° Southeast 396 456 20,000  Level Boston Center
06:51AM 41.6597 -73.8892 127° Southeast 385 443 20,000 -60 Level New York Center
06:52AM 41.5528 -73.9231 193° South 301 346 19,900 -60 Descending New York Center
06:53AM 41.4631 -73.9992 212° Southwest 330 380 19,900  Level New York Center
06:54AM 41.3822 -74.0697 213° Southwest 335 386 20,000  Climbing New York Center
06:55AM 41.3114 -74.1436 218° Southwest 335 386 20,000  Level New York Center
06:56AM 41.2611 -74.2267 231° Southwest 331 381 20,000  Level New York Center
06:57AM 41.2058 -74.3258 233° Southwest 336 387 20,000  Level New York Center
06:58AM 41.1531 -74.4194 233° Southwest 336 387 20,000 -360 Level New York Center
06:59AM 41.1019 -74.5242 237° Southwest 336 387 19,300 -540 Descending New York Center
07:00AM 41.0167 -74.5667 201° Southwest 327 376 19,000 -180 Descending New York TRACON
07:01AM 40.9667 -74.4500 120° Southeast 354 407 19,000  Level New York TRACON
07:02AM 40.9500 -74.3333 101° East 354 407 19,000  Level New York TRACON
07:03AM 40.9333 -74.2000 99° East 354 407 19,000  Level New York TRACON
07:04AM 40.8833 -74.1167 128° Southeast 346 398 19,000 -840 Level New York TRACON
07:05AM 40.7833 -74.0833 166° South 324 373 17,400 -1,620 Descending New York TRACON
07:06AM 40.7333 -73.9833 123° Southeast 324 373 15,600 -1,920 Descending New York TRACON
07:07AM 40.6833 -73.9000 128° Southeast 326 375 13,600 -1,260 Descending New York TRACON
07:08AM 40.6000 -73.9167 189° South 286 329 13,000 -300 Descending New York TRACON
07:09AM 40.5333 -73.9500 201° Southwest 289 333 13,000  Level New York TRACON
07:10AM 40.4500 -73.9333 171° South 300 345 13,000 -600 Level New York TRACON
07:11AM 40.3833 -73.8833 150° Southeast 302 348 11,800 -1,560 Descending New York TRACON
07:12AM 40.3333 -73.8000 128° Southeast 294 338 9,900 -1,860 Descending New York TRACON
07:13AM 40.3167 -73.7167 105° East 299 344 8,300 -1,800 Descending New York TRACON
07:14AM 40.3667 -73.6333 52° Northeast 284 327 6,400 -1,920 Descending New York TRACON
07:15AM 40.4333 -73.5667 37° Northeast 285 328 4,500 -1,320 Descending New York TRACON
07:16AM 40.5000 -73.5167 30° Northeast 281 323 4,000 -360 Descending New York TRACON
07:17AM 40.5667 -73.4833 21° North 277 319 3,800 -480 Descending New York TRACON
07:18AM 40.6333 -73.5000 349° North 235 270 3,100 -720 Descending New York TRACON
07:19AM 40.6833 -73.5167 346° North 204 235 2,500 -540 Descending New York TRACON
07:20AM 40.7167 -73.5833 303° West 160 184 2,100 -240 Descending New York TRACON
07:21AM 40.7333 -73.6333 294° West 155 178 2,000 -60 Descending New York TRACON
07:22AM 40.7333 -73.6833 270° West 140 161 2,000 -300 Level New York TRACON
07:23AM 40.7000 -73.7000 201° Southwest 129 148 1,500 -660 Descending New York TRACON
07:24AM 40.6833 -73.7333 237° Southwest 126 145 800 -720 Descending New York TRACON